Shannon Hills, Arkansas
Current Conditions -  °F | °C
As of 8:53 PM on Friday 28 Nov 2014 (Local Time) from KLIT Reporting Station
Few Clouds Few Clouds  
Wind Chill: 45°   Ceiling: Unl
Heat Index: 49°   Visibility: 10mi
Dew Point: 35°   Wind: 10mph
Humidity: 59%   Direction: 180°S
Pressure: 30.07"   Gusts: NA
Location:  34.5918°N, 92.381°W
Report Text: KLIT 290253Z 18009KT 10SM FEW250 09/02 A3007 RMK AO2 SLP187 T00940017 56010
Loading
Personal Weather Stations






























Interactive Weather Map New forecast layout! Learn more

10-Day Weather Forecast

Advertisements
Track Severe Weather on mobile